createdAt,value
2018-09-11T00:02:08.619Z,84.50
2018-09-11T00:04:36.932Z,84.90
2018-09-11T00:07:05.316Z,85.00
2018-09-11T00:09:33.637Z,85.30
2018-09-11T00:12:01.984Z,85.90
2018-09-11T00:14:30.304Z,86.30
2018-09-11T00:16:58.684Z,86.90
2018-09-11T00:19:27.000Z,87.10
2018-09-11T00:21:55.373Z,87.40
2018-09-11T00:24:23.692Z,87.30
2018-09-11T00:26:52.172Z,87.20
2018-09-11T00:29:20.503Z,87.40
2018-09-11T00:31:48.843Z,87.70
2018-09-11T00:34:17.202Z,88.30
2018-09-11T00:36:45.521Z,88.10
2018-09-11T00:39:13.900Z,88.30
2018-09-11T00:41:42.260Z,88.30
2018-09-11T00:44:10.624Z,89.20
2018-09-11T00:46:38.970Z,89.60
2018-09-11T00:49:07.678Z,90.00
2018-09-11T00:51:36.016Z,90.30
2018-09-11T00:54:04.368Z,90.70
2018-09-11T00:56:32.686Z,90.90
2018-09-11T00:59:01.046Z,91.30
2018-09-11T01:01:29.373Z,91.80
2018-09-11T01:03:57.715Z,92.10
2018-09-11T01:06:26.048Z,92.10
2018-09-11T01:08:54.411Z,92.40
2018-09-11T01:11:22.744Z,92.20
2018-09-11T01:13:51.511Z,92.30
2018-09-11T01:16:19.840Z,92.40
2018-09-11T01:18:48.207Z,92.70
2018-09-11T01:21:16.524Z,92.80
2018-09-11T01:23:44.871Z,93.20
2018-09-11T01:26:13.209Z,93.00
2018-09-11T01:28:41.567Z,93.10
2018-09-11T01:31:09.924Z,93.20
2018-09-11T01:33:38.277Z,93.40
2018-09-11T01:36:06.661Z,93.40
2018-09-11T01:38:35.040Z,93.50
2018-09-11T01:41:03.620Z,93.60
2018-09-11T01:43:32.001Z,94.10
2018-09-11T01:46:00.331Z,94.10
2018-09-11T01:48:28.700Z,94.20
2018-09-11T01:50:57.079Z,94.30
2018-09-11T01:53:25.447Z,94.50
2018-09-11T01:55:53.791Z,94.40
2018-09-11T01:58:22.159Z,94.50
2018-09-11T02:00:50.488Z,94.70
2018-09-11T02:03:18.860Z,94.90
2018-09-11T02:05:47.221Z,95.20
2018-09-11T02:08:15.599Z,95.30
2018-09-11T02:10:43.943Z,95.40
2018-09-11T02:13:12.327Z,95.60
2018-09-11T02:15:40.695Z,95.70
2018-09-11T02:18:09.231Z,96.10
2018-09-11T02:20:37.583Z,96.40
2018-09-11T02:23:05.945Z,97.00
2018-09-11T02:25:34.344Z,96.90
2018-09-11T02:28:02.696Z,97.20
2018-09-11T02:30:31.066Z,97.30
2018-09-11T02:32:59.395Z,97.50
2018-09-11T02:35:27.763Z,98.10
2018-09-11T02:37:56.100Z,98.00
2018-09-11T02:40:24.492Z,98.20
2018-09-11T02:42:52.848Z,98.20
2018-09-11T02:45:23.477Z,98.40
2018-09-11T02:47:53.065Z,98.50
2018-09-11T02:50:21.448Z,98.60
2018-09-11T02:52:49.995Z,98.80
2018-09-11T02:55:18.371Z,98.80
2018-09-11T02:57:46.724Z,98.80
2018-09-11T03:00:15.083Z,99.10
2018-09-11T03:02:43.417Z,99.60
2018-09-11T03:05:11.788Z,99.90
2018-09-11T03:07:40.128Z,99.90
2018-09-11T03:10:08.519Z,99.90
2018-09-11T03:12:36.861Z,99.90
2018-09-11T03:15:05.268Z,99.90
2018-09-11T03:17:33.605Z,99.90
2018-09-11T03:20:01.964Z,99.90
2018-09-11T03:22:30.300Z,99.90
2018-09-11T03:24:58.660Z,99.90
2018-09-11T03:27:27.012Z,99.90
2018-09-11T03:29:55.408Z,99.90
2018-09-11T03:32:23.846Z,99.90
2018-09-11T03:34:52.608Z,99.90
2018-09-11T03:37:21.259Z,99.90
2018-09-11T03:39:49.653Z,99.90
2018-09-11T03:42:17.979Z,99.90
2018-09-11T03:44:46.346Z,99.90
2018-09-11T03:47:14.692Z,99.90
2018-09-11T03:49:43.119Z,99.90
2018-09-11T03:52:11.452Z,99.90
2018-09-11T03:54:39.824Z,99.90
2018-09-11T03:57:08.155Z,99.90
2018-09-11T03:59:36.521Z,99.90
2018-09-11T04:02:04.890Z,99.90
2018-09-11T04:04:33.271Z,99.90
2018-09-11T04:07:06.386Z,99.90
2018-09-11T04:09:34.768Z,99.90
2018-09-11T04:12:03.124Z,99.90
2018-09-11T04:14:32.777Z,99.90
2018-09-11T04:17:01.191Z,99.90
2018-09-11T04:19:29.550Z,99.90
2018-09-11T04:21:57.940Z,99.90
2018-09-11T04:24:26.276Z,99.90
2018-09-11T04:26:54.704Z,99.90
2018-09-11T04:29:23.041Z,99.90
2018-09-11T04:31:51.448Z,99.90
2018-09-11T04:34:19.832Z,99.90
2018-09-11T04:36:48.205Z,99.90
2018-09-11T04:39:16.536Z,99.90
2018-09-11T04:41:44.922Z,99.90
2018-09-11T04:44:13.267Z,99.90
2018-09-11T04:46:41.637Z,99.90
2018-09-11T04:49:09.980Z,99.90
2018-09-11T04:51:38.371Z,99.90
2018-09-11T04:54:06.735Z,99.90
2018-09-11T04:56:35.112Z,99.90
2018-09-11T04:59:03.756Z,99.90
2018-09-11T05:01:32.124Z,99.90
2018-09-11T05:04:00.475Z,99.90
2018-09-11T05:06:28.861Z,99.90
2018-09-11T05:08:57.222Z,99.90
2018-09-11T05:11:25.593Z,99.90
2018-09-11T05:13:53.928Z,99.90
2018-09-11T05:16:22.308Z,99.90
2018-09-11T05:18:50.661Z,99.90
2018-09-11T05:21:19.046Z,99.90
2018-09-11T05:23:47.404Z,99.90
2018-09-11T05:26:15.884Z,99.90
2018-09-11T05:28:44.224Z,99.90
2018-09-11T05:31:12.688Z,99.90
2018-09-11T05:33:41.053Z,99.90
2018-09-11T05:36:09.457Z,99.90
2018-09-11T05:38:37.835Z,99.90
2018-09-11T05:41:06.344Z,99.90
2018-09-11T05:43:34.720Z,99.90
2018-09-11T05:46:03.080Z,99.90
2018-09-11T05:48:31.451Z,99.90
2018-09-11T05:50:59.865Z,99.90
2018-09-11T05:53:28.241Z,99.90
2018-09-11T05:55:56.647Z,99.90
2018-09-11T05:58:25.103Z,99.90
2018-09-11T06:00:53.690Z,99.90
2018-09-11T06:03:22.055Z,99.90
2018-09-11T06:05:50.390Z,99.90
2018-09-11T06:08:18.768Z,99.90
2018-09-11T06:10:47.109Z,99.90
2018-09-11T06:13:15.472Z,99.90
2018-09-11T06:15:43.816Z,99.90
2018-09-11T06:18:12.180Z,99.90
2018-09-11T06:20:40.525Z,99.90
2018-09-11T06:23:08.909Z,99.90
2018-09-11T06:25:37.276Z,99.90
2018-09-11T06:28:05.670Z,99.90
2018-09-11T06:30:34.004Z,99.90
2018-09-11T06:33:02.373Z,99.90
2018-09-11T06:35:30.727Z,99.90
2018-09-11T06:37:59.097Z,99.90
2018-09-11T06:40:27.444Z,99.90
2018-09-11T06:42:56.190Z,99.90
2018-09-11T06:45:24.541Z,99.90
2018-09-11T06:47:52.914Z,99.90
2018-09-11T06:50:21.259Z,99.90
2018-09-11T06:52:49.653Z,99.90
2018-09-11T06:55:17.996Z,99.90
2018-09-11T06:57:46.387Z,99.90
2018-09-11T07:00:14.741Z,99.90
2018-09-11T07:02:43.116Z,99.90
2018-09-11T07:05:11.484Z,99.90
2018-09-11T07:07:39.840Z,99.90
2018-09-11T07:10:08.191Z,99.90
2018-09-11T07:12:36.588Z,99.90
2018-09-11T07:15:04.944Z,99.90
2018-09-11T07:17:33.324Z,99.90
2018-09-11T07:20:01.859Z,99.90
2018-09-11T07:22:30.087Z,99.90
2018-09-11T07:24:58.425Z,99.90
2018-09-11T07:27:26.805Z,99.90
2018-09-11T07:29:55.132Z,99.90
2018-09-11T07:32:23.530Z,99.90
2018-09-11T07:34:51.875Z,99.90
2018-09-11T07:37:20.253Z,99.30
2018-09-11T07:39:48.593Z,99.00
2018-09-11T07:42:17.004Z,98.10
2018-09-11T07:44:45.336Z,98.00
2018-09-11T07:47:13.715Z,97.50
2018-09-11T07:49:42.072Z,95.40
2018-09-11T07:52:10.464Z,95.00
2018-09-11T07:54:38.803Z,94.40
2018-09-11T07:57:07.205Z,94.10
2018-09-11T07:59:35.549Z,93.30
2018-09-11T08:02:03.948Z,92.10
2018-09-11T08:04:32.280Z,91.50
2018-09-11T08:07:00.668Z,92.40
2018-09-11T08:09:29.007Z,91.90
2018-09-11T08:11:57.395Z,91.50
2018-09-11T08:14:25.741Z,91.40
2018-09-11T08:16:54.117Z,91.00
2018-09-11T08:19:22.462Z,90.50
2018-09-11T08:21:50.836Z,88.70
2018-09-11T08:24:19.181Z,85.60
2018-09-11T08:26:47.562Z,86.00
2018-09-11T08:29:16.023Z,84.70
2018-09-11T08:31:44.460Z,83.30
2018-09-11T08:34:12.813Z,78.90
2018-09-11T08:36:41.160Z,78.70
2018-09-11T08:39:10.708Z,78.00
2018-09-11T08:41:39.157Z,79.90
2018-09-11T08:44:07.579Z,82.60
2018-09-11T08:46:36.030Z,80.20
2018-09-11T08:49:04.389Z,79.60
2018-09-11T08:51:32.759Z,77.30
2018-09-11T08:54:01.132Z,74.70
2018-09-11T08:56:29.487Z,76.60
2018-09-11T08:58:57.973Z,76.90
2018-09-11T09:01:26.372Z,75.70
2018-09-11T09:03:54.764Z,78.00
2018-09-11T09:06:23.103Z,77.20
2018-09-11T09:08:51.477Z,75.80
2018-09-11T09:11:19.816Z,75.30
2018-09-11T09:13:48.340Z,74.00
2018-09-11T09:16:16.696Z,74.70
2018-09-11T09:18:45.069Z,74.90
2018-09-11T09:21:13.407Z,74.80
2018-09-11T09:23:41.782Z,74.10
2018-09-11T09:26:10.145Z,74.10
2018-09-11T09:28:38.520Z,73.10
2018-09-11T09:31:06.860Z,73.40
2018-09-11T09:33:35.233Z,71.20
2018-09-11T09:36:03.592Z,70.80
2018-09-11T09:38:31.978Z,71.20
2018-09-11T09:41:00.322Z,69.10
2018-09-11T09:43:28.752Z,70.00
2018-09-11T09:45:57.093Z,70.50
2018-09-11T09:48:25.480Z,68.40
2018-09-11T09:50:53.894Z,69.40
2018-09-11T09:53:22.225Z,71.50
2018-09-11T09:55:50.595Z,67.30
2018-09-11T09:58:18.986Z,69.40
2018-09-11T10:00:52.600Z,67.00
2018-09-11T10:03:20.981Z,66.80
2018-09-11T10:05:49.323Z,68.80
2018-09-11T10:08:17.699Z,69.50
2018-09-11T10:10:46.060Z,69.40
2018-09-11T10:13:14.502Z,67.20
2018-09-11T10:15:42.859Z,67.40
2018-09-11T10:18:11.247Z,66.00
2018-09-11T10:20:39.580Z,66.50
2018-09-11T10:23:07.914Z,66.00
2018-09-11T10:25:36.305Z,63.80
2018-09-11T10:28:04.670Z,60.80
2018-09-11T10:30:33.049Z,60.80
2018-09-11T10:33:01.392Z,59.90
2018-09-11T10:35:29.772Z,59.20
2018-09-11T10:37:58.100Z,59.80
2018-09-11T10:40:26.472Z,58.80
2018-09-11T10:42:54.884Z,58.90
2018-09-11T10:45:23.263Z,59.00
2018-09-11T10:47:51.607Z,58.90
2018-09-11T10:50:19.981Z,58.60
2018-09-11T10:52:48.322Z,58.20
2018-09-11T10:55:16.733Z,59.40
2018-09-11T10:57:45.068Z,60.70
2018-09-11T11:00:13.557Z,58.00
2018-09-11T11:02:41.845Z,59.70
2018-09-11T11:05:10.221Z,58.60
2018-09-11T11:07:38.565Z,57.60
2018-09-11T11:10:07.184Z,57.60
2018-09-11T11:12:35.533Z,56.60
2018-09-11T11:15:03.986Z,56.70
2018-09-11T11:17:32.323Z,57.70
2018-09-11T11:20:00.705Z,57.00
2018-09-11T11:22:29.051Z,55.20
2018-09-11T11:24:57.423Z,55.40
2018-09-11T11:27:25.770Z,56.30
2018-09-11T11:29:54.149Z,55.80
2018-09-11T11:32:22.487Z,54.70
2018-09-11T11:34:50.864Z,55.00
2018-09-11T11:37:19.349Z,55.20
2018-09-11T11:39:47.592Z,54.50
2018-09-11T11:42:16.014Z,53.50
2018-09-11T11:44:44.355Z,53.20
2018-09-11T11:47:12.708Z,52.30
2018-09-11T11:49:41.141Z,52.40
2018-09-11T11:52:09.480Z,52.10
2018-09-11T11:54:37.877Z,52.70
2018-09-11T11:57:06.228Z,52.60
2018-09-11T11:59:34.612Z,53.40
2018-09-11T12:02:03.022Z,53.80
2018-09-11T12:04:31.340Z,52.60
2018-09-11T12:06:59.677Z,53.40
2018-09-11T12:09:28.019Z,52.20
2018-09-11T12:11:56.397Z,51.50
2018-09-11T12:14:24.740Z,51.60
2018-09-11T12:16:53.129Z,52.40
2018-09-11T12:19:21.493Z,51.10
2018-09-11T12:21:49.904Z,50.60
2018-09-11T12:24:18.263Z,50.20
2018-09-11T12:26:46.702Z,49.60
2018-09-11T12:29:14.995Z,49.80
2018-09-11T12:31:43.389Z,51.40
2018-09-11T12:34:11.727Z,50.40
2018-09-11T12:36:40.121Z,49.90
2018-09-11T12:39:09.252Z,50.90
2018-09-11T12:41:37.648Z,49.10
2018-09-11T12:44:06.020Z,49.30
2018-09-11T12:46:34.640Z,48.80
2018-09-11T12:49:02.776Z,48.90
2018-09-11T12:51:31.159Z,48.30
2018-09-11T12:53:59.598Z,48.10
2018-09-11T12:56:27.971Z,47.50
2018-09-11T12:58:56.307Z,47.90
2018-09-11T13:01:24.682Z,47.10
2018-09-11T13:03:53.025Z,46.70
2018-09-11T13:06:21.409Z,47.20
2018-09-11T13:08:49.845Z,47.70
2018-09-11T13:11:18.216Z,46.10
2018-09-11T13:13:46.554Z,42.10
2018-09-11T13:16:14.948Z,42.70
2018-09-11T13:18:44.160Z,42.10
2018-09-11T13:21:12.540Z,44.70
2018-09-11T13:23:40.880Z,44.30
2018-09-11T13:26:09.261Z,43.90
2018-09-11T13:28:37.635Z,44.20
2018-09-11T13:31:06.084Z,45.30
2018-09-11T13:33:34.433Z,45.70
2018-09-11T13:36:02.818Z,45.20
2018-09-11T13:38:31.162Z,44.50
2018-09-11T13:40:59.565Z,41.40
2018-09-11T13:43:27.986Z,42.20
2018-09-11T13:45:56.356Z,41.50
2018-09-11T13:48:24.704Z,41.40
2018-09-11T13:50:53.100Z,41.40
2018-09-11T13:53:21.436Z,42.00
2018-09-11T13:55:49.831Z,41.60
2018-09-11T13:58:18.272Z,43.20
2018-09-11T14:00:46.619Z,42.40
2018-09-11T14:03:14.992Z,42.80
2018-09-11T14:05:43.336Z,41.80
2018-09-11T14:08:11.713Z,42.50
2018-09-11T14:10:40.056Z,42.70
2018-09-11T14:13:08.444Z,42.80
2018-09-11T14:15:36.835Z,41.80
2018-09-11T14:18:05.173Z,39.70
2018-09-11T14:20:33.520Z,39.30
2018-09-11T14:23:01.900Z,39.80
2018-09-11T14:25:30.240Z,41.30
2018-09-11T14:27:58.615Z,40.70
2018-09-11T14:30:26.967Z,40.10
2018-09-11T14:32:55.351Z,39.20
2018-09-11T14:35:23.697Z,40.00
2018-09-11T14:37:52.073Z,41.10
2018-09-11T14:40:20.408Z,39.80
2018-09-11T14:42:48.815Z,40.50
2018-09-11T14:45:17.155Z,40.50
2018-09-11T14:47:45.617Z,40.00
2018-09-11T14:50:15.140Z,39.00
2018-09-11T14:52:43.573Z,39.70
2018-09-11T14:55:12.208Z,39.20
2018-09-11T14:57:40.588Z,40.20
2018-09-11T15:00:09.001Z,40.10
2018-09-11T15:02:37.355Z,40.00
2018-09-11T15:05:05.747Z,40.50
2018-09-11T15:07:34.120Z,39.70
2018-09-11T15:10:02.471Z,40.50
2018-09-11T15:12:30.844Z,38.10
2018-09-11T15:14:59.214Z,37.60
2018-09-11T15:17:27.584Z,37.10
2018-09-11T15:19:55.940Z,37.10
2018-09-11T15:22:24.324Z,37.00
2018-09-11T15:24:52.680Z,37.20
2018-09-11T15:27:21.081Z,35.90
2018-09-11T15:29:49.489Z,34.20
2018-09-11T15:32:17.822Z,34.90
2018-09-11T15:34:46.191Z,34.80
2018-09-11T15:37:14.547Z,35.80
2018-09-11T15:39:43.002Z,35.50
2018-09-11T15:42:11.383Z,35.90
2018-09-11T15:44:39.796Z,36.00
2018-09-11T15:47:08.305Z,35.50
2018-09-11T15:49:36.635Z,34.50
2018-09-11T15:52:04.985Z,34.30
2018-09-11T15:54:33.379Z,35.20
2018-09-11T15:57:01.732Z,36.50
2018-09-11T15:59:30.112Z,36.30
2018-09-11T16:01:58.492Z,35.90
2018-09-11T16:04:26.872Z,33.50
2018-09-11T16:06:55.270Z,34.00
2018-09-11T16:09:23.657Z,33.50
2018-09-11T16:11:52.024Z,33.90
2018-09-11T16:14:20.417Z,32.60
2018-09-11T16:16:48.769Z,33.20
2018-09-11T16:19:17.142Z,34.20
2018-09-11T16:21:45.496Z,34.70
2018-09-11T16:24:13.864Z,35.00
2018-09-11T16:26:42.220Z,35.30
2018-09-11T16:29:10.594Z,36.10
2018-09-11T16:31:38.947Z,35.10
2018-09-11T16:34:07.345Z,35.60
2018-09-11T16:36:35.711Z,35.80
2018-09-11T16:39:05.789Z,35.80
2018-09-11T16:41:34.217Z,36.50
2018-09-11T16:44:02.605Z,37.00
2018-09-11T16:46:30.951Z,37.80
2018-09-11T16:48:59.342Z,38.40
2018-09-11T16:51:27.688Z,39.00
2018-09-11T16:53:56.081Z,39.50
2018-09-11T16:56:24.429Z,40.00
2018-09-11T16:58:52.808Z,40.30
2018-09-11T17:01:21.152Z,40.20
2018-09-11T17:03:49.558Z,40.50
2018-09-11T17:06:17.909Z,40.90
2018-09-11T17:08:46.458Z,41.90
2018-09-11T17:11:14.740Z,42.40
2018-09-11T17:13:43.101Z,42.90
2018-09-11T17:16:11.458Z,43.20
2018-09-11T17:18:39.848Z,43.60
2018-09-11T17:21:08.195Z,43.70
2018-09-11T17:23:36.569Z,44.00
2018-09-11T17:26:05.126Z,46.00
2018-09-11T17:28:33.537Z,47.50
2018-09-11T17:31:01.904Z,47.80
2018-09-11T17:33:30.257Z,48.00
2018-09-11T17:35:58.739Z,48.30
2018-09-11T17:38:27.091Z,48.70
2018-09-11T17:40:55.465Z,49.30
2018-09-11T17:43:23.973Z,49.60
2018-09-11T17:45:52.452Z,50.20
2018-09-11T17:48:21.173Z,50.70
2018-09-11T17:50:49.582Z,51.20
2018-09-11T17:53:17.929Z,52.10
2018-09-11T17:55:46.308Z,52.40
2018-09-11T17:58:14.666Z,53.00
2018-09-11T18:00:43.052Z,53.40
2018-09-11T18:03:11.388Z,53.70
2018-09-11T18:05:39.776Z,53.60
2018-09-11T18:08:08.172Z,54.30
2018-09-11T18:10:36.563Z,54.80
2018-09-11T18:13:04.930Z,55.30
2018-09-11T18:15:33.352Z,55.70
2018-09-11T18:18:01.713Z,56.40
2018-09-11T18:20:30.091Z,57.00
2018-09-11T18:22:58.450Z,56.80
2018-09-11T18:25:26.844Z,57.00
2018-09-11T18:27:55.295Z,57.60
2018-09-11T18:30:23.688Z,57.90
2018-09-11T18:32:52.072Z,58.30
2018-09-11T18:35:20.467Z,58.70
2018-09-11T18:37:48.828Z,58.50
2018-09-11T18:40:17.213Z,58.70
2018-09-11T18:42:45.600Z,58.90
2018-09-11T18:45:13.993Z,59.10
2018-09-11T18:47:42.642Z,59.70
2018-09-11T18:50:11.540Z,59.80
2018-09-11T18:52:40.508Z,61.80
2018-09-11T18:55:09.450Z,61.20
2018-09-11T18:57:38.097Z,61.40
2018-09-11T19:00:06.662Z,61.60
2018-09-11T19:02:35.013Z,62.10
2018-09-11T19:05:03.736Z,62.40
2018-09-11T19:07:32.048Z,63.00
2018-09-11T19:10:00.387Z,63.30
2018-09-11T19:12:29.770Z,64.20
2018-09-11T19:14:57.169Z,64.70
2018-09-11T19:17:25.568Z,65.70
2018-09-11T19:19:54.397Z,66.20
2018-09-11T19:22:22.781Z,66.30
2018-09-11T19:24:51.140Z,68.00
2018-09-11T19:27:19.523Z,69.00
2018-09-11T19:29:47.856Z,69.40
2018-09-11T19:32:16.262Z,70.50
2018-09-11T19:34:44.656Z,71.30
2018-09-11T19:37:13.486Z,71.50
2018-09-11T19:39:41.892Z,71.90
2018-09-11T19:42:10.447Z,71.90
2018-09-11T19:44:38.785Z,72.20
2018-09-11T19:47:07.168Z,72.30
2018-09-11T19:49:35.533Z,72.90
2018-09-11T19:52:03.948Z,73.30
2018-09-11T19:54:32.303Z,73.50
2018-09-11T19:57:00.683Z,74.50
2018-09-11T19:59:29.054Z,74.90
2018-09-11T20:01:57.430Z,75.30
2018-09-11T20:04:25.892Z,76.30
2018-09-11T20:06:54.306Z,76.90
2018-09-11T20:09:22.661Z,76.80
2018-09-11T20:11:51.048Z,77.10
2018-09-11T20:14:19.401Z,77.60
2018-09-11T20:16:47.823Z,78.40
2018-09-11T20:19:16.224Z,80.60
2018-09-11T20:21:44.613Z,80.10
2018-09-11T20:24:13.141Z,80.30
2018-09-11T20:26:41.521Z,81.00
2018-09-11T20:29:09.864Z,80.90
2018-09-11T20:31:38.478Z,80.80
2018-09-11T20:34:06.909Z,80.70
2018-09-11T20:36:35.290Z,80.90
2018-09-11T20:39:04.876Z,81.20
2018-09-11T20:41:33.310Z,82.20
2018-09-11T20:44:01.649Z,82.20
2018-09-11T20:46:30.041Z,82.40
2018-09-11T20:48:58.387Z,82.80
2018-09-11T20:51:26.773Z,82.80
2018-09-11T20:53:55.145Z,83.00
2018-09-11T20:56:23.553Z,83.30
2018-09-11T20:58:51.917Z,83.90
2018-09-11T21:01:20.317Z,84.20
2018-09-11T21:03:49.048Z,84.90
2018-09-11T21:06:17.424Z,85.40
2018-09-11T21:08:45.816Z,85.40
2018-09-11T21:11:14.196Z,86.50
2018-09-11T21:13:42.649Z,87.20
2018-09-11T21:16:10.999Z,87.80
2018-09-11T21:18:39.386Z,88.40
2018-09-11T21:21:07.736Z,88.80
2018-09-11T21:23:36.132Z,88.70
2018-09-11T21:26:04.519Z,88.90
2018-09-11T21:28:32.916Z,88.70
2018-09-11T21:31:01.248Z,88.90
2018-09-11T21:33:29.726Z,89.70
2018-09-11T21:35:58.068Z,90.30
2018-09-11T21:38:26.436Z,90.70
2018-09-11T21:40:54.812Z,91.50
2018-09-11T21:43:23.245Z,91.20
2018-09-11T21:45:51.603Z,91.20
2018-09-11T21:48:19.990Z,91.40
2018-09-11T21:50:48.338Z,91.50
2018-09-11T21:53:16.721Z,91.90
2018-09-11T21:55:45.076Z,91.90
2018-09-11T21:58:13.452Z,92.30
2018-09-11T22:00:47.221Z,92.40
2018-09-11T22:03:15.600Z,92.20
2018-09-11T22:05:44.009Z,92.30
2018-09-11T22:08:12.340Z,92.70
2018-09-11T22:10:40.698Z,93.00
2018-09-11T22:13:09.072Z,93.30
2018-09-11T22:15:37.435Z,93.20
2018-09-11T22:18:05.824Z,93.30
2018-09-11T22:20:34.196Z,93.50
2018-09-11T22:23:02.567Z,93.50
2018-09-11T22:25:30.921Z,93.90
2018-09-11T22:27:59.307Z,94.10
2018-09-11T22:30:27.656Z,94.50
2018-09-11T22:32:56.079Z,94.60
2018-09-11T22:35:24.435Z,94.60
2018-09-11T22:37:52.804Z,94.70
2018-09-11T22:40:21.149Z,94.80
2018-09-11T22:42:49.593Z,94.90
2018-09-11T22:45:17.954Z,95.00
2018-09-11T22:47:46.336Z,95.20
2018-09-11T22:50:14.700Z,95.40
2018-09-11T22:52:43.076Z,96.50
2018-09-11T22:55:11.428Z,97.10
2018-09-11T22:57:39.814Z,97.00
2018-09-11T23:00:08.220Z,96.70
2018-09-11T23:02:36.569Z,96.50
2018-09-11T23:05:04.981Z,96.80
2018-09-11T23:07:33.316Z,96.50
2018-09-11T23:10:01.689Z,96.30
2018-09-11T23:12:30.120Z,96.20
2018-09-11T23:14:58.493Z,96.10
2018-09-11T23:17:26.852Z,96.10
2018-09-11T23:19:55.235Z,96.50
2018-09-11T23:22:23.581Z,96.40
2018-09-11T23:24:51.969Z,96.60
2018-09-11T23:27:20.299Z,96.60
2018-09-11T23:29:48.677Z,96.60
2018-09-11T23:32:17.033Z,96.70
2018-09-11T23:34:45.412Z,96.90
2018-09-11T23:37:13.752Z,97.30
2018-09-11T23:39:42.136Z,97.70
2018-09-11T23:42:10.508Z,97.80
2018-09-11T23:44:38.884Z,97.80
2018-09-11T23:47:07.233Z,97.60
2018-09-11T23:49:35.652Z,97.40
2018-09-11T23:52:04.012Z,97.10
2018-09-11T23:54:32.380Z,96.90
2018-09-11T23:57:00.733Z,96.70
2018-09-11T23:59:29.107Z,96.50
